createdAt,value
2022-12-09T00:01:19.392Z,41.53
2022-12-09T00:03:48.228Z,36.03
2022-12-09T00:06:20.822Z,43.85
2022-12-09T00:08:49.022Z,37.45
2022-12-09T00:11:17.624Z,41.90
2022-12-09T00:13:45.354Z,36.60
2022-12-09T00:16:15.204Z,39.20
2022-12-09T00:18:43.794Z,38.65
2022-12-09T00:21:20.478Z,44.28
2022-12-09T00:23:49.501Z,47.35
2022-12-09T00:26:18.823Z,39.33
2022-12-09T00:28:46.734Z,44.90
2022-12-09T00:31:16.268Z,35.75
2022-12-09T00:33:44.169Z,46.60
2022-12-09T00:36:14.486Z,43.15
2022-12-09T00:38:42.580Z,39.15
2022-12-09T00:41:10.924Z,38.10
2022-12-09T00:43:38.703Z,37.85
2022-12-09T00:46:07.002Z,39.45
2022-12-09T00:48:34.881Z,37.63
2022-12-09T00:51:03.297Z,31.75
2022-12-09T00:53:31.026Z,36.67
2022-12-09T00:55:58.717Z,33.55
2022-12-09T00:58:26.443Z,33.92
2022-12-09T01:00:54.785Z,30.63
2022-12-09T01:03:22.839Z,38.60
2022-12-09T01:05:50.546Z,32.50
2022-12-09T01:08:18.669Z,37.08
2022-12-09T01:10:47.019Z,41.65
2022-12-09T01:13:16.376Z,36.35
2022-12-09T01:15:44.613Z,38.60
2022-12-09T01:18:13.073Z,37.33
2022-12-09T01:20:41.027Z,40.28
2022-12-09T01:23:08.840Z,39.50
2022-12-09T01:25:39.459Z,40.35
2022-12-09T01:28:07.311Z,37.40
2022-12-09T01:30:34.930Z,35.40
2022-12-09T01:33:02.530Z,43.60
2022-12-09T01:35:30.125Z,46.55
2022-12-09T01:37:57.915Z,39.42
2022-12-09T01:40:25.749Z,41.53
2022-12-09T01:42:53.331Z,31.25
2022-12-09T01:45:20.881Z,31.95
2022-12-09T01:48:15.520Z,39.17
2022-12-09T01:50:46.290Z,33.80
2022-12-09T01:53:15.640Z,37.67
2022-12-09T01:55:43.828Z,44.33
2022-12-09T01:58:11.533Z,35.42
2022-12-09T02:00:39.357Z,37.25
2022-12-09T02:03:07.757Z,32.55
2022-12-09T02:05:36.442Z,32.28
2022-12-09T02:08:08.075Z,31.35
2022-12-09T02:10:41.040Z,39.47
2022-12-09T02:13:27.433Z,24.38
2022-12-09T02:15:58.960Z,27.00
2022-12-09T02:18:43.616Z,30.83
2022-12-09T02:21:19.408Z,31.17
2022-12-09T02:24:14.252Z,27.02
2022-12-09T02:27:04.510Z,35.58
2022-12-09T02:29:32.040Z,29.83
2022-12-09T02:32:16.443Z,34.35
2022-12-09T02:34:52.490Z,35.05
2022-12-09T02:37:32.855Z,31.95
2022-12-09T02:40:06.944Z,31.50
2022-12-09T02:42:37.323Z,37.63
2022-12-09T02:45:08.815Z,26.45
2022-12-09T02:47:42.050Z,30.60
2022-12-09T02:50:14.683Z,35.60
2022-12-09T02:55:14.243Z,30.40
2022-12-09T02:57:41.939Z,33.15
2022-12-09T03:00:11.739Z,29.67
2022-12-09T03:02:44.882Z,28.75
2022-12-09T03:05:34.288Z,34.45
2022-12-09T03:08:20.529Z,35.63
2022-12-09T03:10:59.862Z,32.88
2022-12-09T03:13:37.741Z,28.20
2022-12-09T03:16:35.380Z,30.25
2022-12-09T03:19:19.833Z,31.10
2022-12-09T03:21:50.073Z,35.38
2022-12-09T03:24:22.746Z,35.78
2022-12-09T03:26:52.008Z,37.72
2022-12-09T03:29:24.398Z,35.53
2022-12-09T03:31:54.115Z,32.25
2022-12-09T03:34:26.775Z,36.58
2022-12-09T03:36:55.190Z,34.92
2022-12-09T03:39:30.131Z,37.58
2022-12-09T03:42:02.477Z,35.85
2022-12-09T03:44:39.115Z,38.10
2022-12-09T03:47:08.542Z,36.00
2022-12-09T03:49:37.832Z,37.22
2022-12-09T03:52:18.348Z,39.35
2022-12-09T03:54:48.548Z,30.98
2022-12-09T03:57:19.955Z,25.45
2022-12-09T04:00:02.142Z,33.53
2022-12-09T04:02:30.368Z,20.02
2022-12-09T04:04:58.153Z,26.77
2022-12-09T04:07:25.780Z,27.13
2022-12-09T04:09:53.472Z,27.45
2022-12-09T04:12:21.198Z,23.85
2022-12-09T04:14:49.103Z,31.23
2022-12-09T04:17:17.214Z,29.83
2022-12-09T04:19:45.083Z,25.90
2022-12-09T04:22:12.788Z,24.30
2022-12-09T04:24:40.547Z,26.60
2022-12-09T04:27:08.531Z,25.77
2022-12-09T04:29:36.441Z,26.33
2022-12-09T04:32:04.465Z,27.85
2022-12-09T04:34:34.194Z,24.90
2022-12-09T04:37:01.790Z,25.90
2022-12-09T04:39:29.267Z,25.75
2022-12-09T04:41:56.855Z,26.13
2022-12-09T04:44:24.467Z,29.17
2022-12-09T04:46:52.083Z,28.50
2022-12-09T04:49:19.861Z,30.75
2022-12-09T04:51:47.763Z,23.60
2022-12-09T04:54:15.473Z,32.38
2022-12-09T04:56:43.728Z,27.23
2022-12-09T04:59:11.372Z,31.35
2022-12-09T05:01:39.434Z,28.35
2022-12-09T05:04:07.995Z,26.55
2022-12-09T05:06:35.934Z,28.27
2022-12-09T05:09:04.769Z,30.92
2022-12-09T05:11:33.008Z,28.08
2022-12-09T05:14:00.729Z,34.85
2022-12-09T05:16:28.850Z,35.17
2022-12-09T05:18:57.040Z,34.67
2022-12-09T05:21:24.827Z,31.33
2022-12-09T05:23:52.962Z,30.27
2022-12-09T05:26:23.460Z,35.88
2022-12-09T05:28:52.441Z,37.67
2022-12-09T05:31:22.940Z,34.97
2022-12-09T05:33:52.460Z,38.22
2022-12-09T05:36:24.313Z,37.13
2022-12-09T05:38:52.894Z,37.20
2022-12-09T05:41:21.031Z,32.30
2022-12-09T05:43:48.976Z,38.85
2022-12-09T05:46:17.515Z,33.92
2022-12-09T05:48:46.791Z,32.15
2022-12-09T05:51:27.209Z,33.97
2022-12-09T05:53:55.802Z,34.00
2022-12-09T05:56:25.979Z,39.42
2022-12-09T05:58:55.630Z,40.17
2022-12-09T06:01:24.326Z,38.95
2022-12-09T06:03:54.247Z,47.88
2022-12-09T06:06:26.562Z,37.83
2022-12-09T06:09:00.555Z,37.70
2022-12-09T06:11:29.122Z,39.67
2022-12-09T06:13:57.159Z,40.67
2022-12-09T06:16:26.095Z,40.95
2022-12-09T06:18:54.353Z,33.97
2022-12-09T06:21:23.676Z,38.53
2022-12-09T06:23:52.235Z,39.90
2022-12-09T06:26:23.980Z,33.28
2022-12-09T06:28:52.915Z,41.85
2022-12-09T06:31:21.446Z,41.05
2022-12-09T06:33:55.513Z,36.70
2022-12-09T06:36:25.537Z,38.67
2022-12-09T06:38:53.982Z,36.70
2022-12-09T06:41:21.954Z,34.90
2022-12-09T06:43:50.135Z,38.88
2022-12-09T06:46:23.358Z,36.67
2022-12-09T06:48:51.978Z,43.47
2022-12-09T06:51:20.366Z,43.30
2022-12-09T06:53:48.869Z,43.45
2022-12-09T06:56:18.573Z,38.53
2022-12-09T06:58:47.696Z,37.38
2022-12-09T07:01:25.164Z,38.63
2022-12-09T07:03:56.219Z,40.85
2022-12-09T07:06:42.669Z,46.53
2022-12-09T07:09:15.598Z,46.53
2022-12-09T07:11:46.342Z,42.92
2022-12-09T07:14:16.145Z,52.55
2022-12-09T07:16:44.454Z,45.22
2022-12-09T07:19:24.734Z,45.53
2022-12-09T07:21:53.257Z,45.38
2022-12-09T07:24:21.317Z,44.85
2022-12-09T07:26:49.343Z,46.90
2022-12-09T07:29:17.847Z,47.80
2022-12-09T07:31:47.673Z,61.75
2022-12-09T07:34:16.045Z,63.75
2022-12-09T07:36:44.084Z,68.68
2022-12-09T07:39:17.273Z,78.65
2022-12-09T07:41:45.560Z,71.95
2022-12-09T07:44:13.572Z,74.72
2022-12-09T07:46:41.956Z,74.45
2022-12-09T07:49:12.119Z,76.07
2022-12-09T07:51:40.177Z,67.47
2022-12-09T07:54:08.092Z,71.28
2022-12-09T07:56:35.823Z,68.85
2022-12-09T07:59:07.876Z,69.10
2022-12-09T08:01:36.444Z,64.63
2022-12-09T08:04:06.638Z,63.63
2022-12-09T08:06:35.710Z,57.13
2022-12-09T08:09:07.465Z,61.17
2022-12-09T08:11:36.145Z,56.78
2022-12-09T08:14:12.322Z,58.67
2022-12-09T08:16:41.962Z,54.88
2022-12-09T08:19:10.338Z,49.10
2022-12-09T08:21:39.019Z,54.17
2022-12-09T08:24:07.796Z,56.58
2022-12-09T08:26:37.566Z,53.28
2022-12-09T08:29:09.116Z,51.58
2022-12-09T08:31:41.724Z,50.37
2022-12-09T08:34:10.261Z,54.92
2022-12-09T08:36:39.176Z,49.58
2022-12-09T08:39:07.851Z,57.45
2022-12-09T08:41:38.427Z,55.40
2022-12-09T08:44:11.160Z,53.22
2022-12-09T08:46:41.760Z,49.85
2022-12-09T08:49:10.261Z,50.95
2022-12-09T08:51:38.923Z,52.33
2022-12-09T08:54:07.158Z,52.85
2022-12-09T08:56:35.401Z,52.33
2022-12-09T08:59:03.998Z,50.42
2022-12-09T09:01:35.597Z,40.92
2022-12-09T09:04:09.814Z,55.45
2022-12-09T09:06:39.783Z,54.75
2022-12-09T09:09:09.881Z,52.45
2022-12-09T09:11:38.523Z,51.80
2022-12-09T09:14:07.696Z,51.90
2022-12-09T09:16:36.459Z,51.60
2022-12-09T09:19:06.736Z,52.70
2022-12-09T09:21:35.609Z,51.15
2022-12-09T09:24:08.693Z,45.00
2022-12-09T09:26:36.870Z,53.50
2022-12-09T09:29:04.780Z,52.13
2022-12-09T09:31:32.698Z,57.40
2022-12-09T09:34:00.994Z,56.40
2022-12-09T09:36:28.993Z,49.05
2022-12-09T09:38:58.799Z,42.55
2022-12-09T09:41:45.466Z,46.15
2022-12-09T09:44:31.754Z,39.70
2022-12-09T09:47:02.091Z,51.70
2022-12-09T09:49:56.390Z,40.65
2022-12-09T09:52:27.467Z,40.58
2022-12-09T09:54:55.558Z,38.03
2022-12-09T09:57:26.942Z,46.75
2022-12-09T10:00:23.704Z,40.97
2022-12-09T10:02:55.863Z,42.58
2022-12-09T10:05:26.678Z,33.75
2022-12-09T10:08:05.128Z,40.67
2022-12-09T10:10:33.452Z,44.38
2022-12-09T10:13:23.015Z,49.75
2022-12-09T10:16:07.530Z,50.60
2022-12-09T10:18:42.473Z,50.70
2022-12-09T10:21:21.707Z,49.35
2022-12-09T10:23:50.810Z,45.13
2022-12-09T10:26:30.521Z,45.15
2022-12-09T10:29:45.210Z,46.50
2022-12-09T10:32:20.523Z,48.70
2022-12-09T10:34:49.687Z,41.10
2022-12-09T10:37:43.898Z,43.22
2022-12-09T10:40:12.470Z,39.05
2022-12-09T10:43:13.745Z,45.05
2022-12-09T10:46:17.368Z,38.45
2022-12-09T10:48:56.305Z,42.97
2022-12-09T10:51:28.949Z,45.92
2022-12-09T10:54:01.168Z,41.15
2022-12-09T10:59:23.286Z,41.70
2022-12-09T11:01:57.137Z,37.65
2022-12-09T11:04:29.425Z,44.33
2022-12-09T11:07:06.250Z,34.50
2022-12-09T11:09:38.636Z,40.08
2022-12-09T11:12:15.980Z,40.47
2022-12-09T11:14:53.526Z,41.38
2022-12-09T11:17:26.028Z,35.75
2022-12-09T11:19:57.604Z,33.90
2022-12-09T11:22:31.848Z,31.47
2022-12-09T11:25:13.244Z,38.55
2022-12-09T11:27:55.402Z,36.75
2022-12-09T11:30:27.053Z,31.58
2022-12-09T11:33:07.914Z,35.75
2022-12-09T11:35:51.769Z,34.55
2022-12-09T11:38:31.769Z,38.05
2022-12-09T11:41:05.483Z,38.15
2022-12-09T11:43:36.721Z,34.45
2022-12-09T11:46:16.137Z,33.88
2022-12-09T11:48:53.434Z,37.30
2022-12-09T11:51:25.958Z,36.30
2022-12-09T11:54:03.289Z,37.20
2022-12-09T11:56:32.028Z,42.72
2022-12-09T11:59:15.329Z,37.97
2022-12-09T12:01:53.373Z,33.70
2022-12-09T12:04:49.496Z,32.42
2022-12-09T12:07:33.843Z,33.80
2022-12-09T12:10:03.669Z,36.28
2022-12-09T12:12:37.405Z,38.97
2022-12-09T12:15:19.564Z,35.08
2022-12-09T12:17:57.697Z,34.85
2022-12-09T12:21:09.983Z,42.50
2022-12-09T12:23:58.379Z,44.17
2022-12-09T12:26:52.379Z,38.83
2022-12-09T12:29:35.069Z,41.88
2022-12-09T12:32:09.414Z,41.03
2022-12-09T12:34:55.753Z,38.35
2022-12-09T12:38:04.766Z,36.22
2022-12-09T12:41:10.987Z,35.58
2022-12-09T12:44:28.619Z,38.08
2022-12-09T12:47:31.098Z,36.90
2022-12-09T12:50:07.913Z,32.90
2022-12-09T12:53:00.718Z,41.72
2022-12-09T12:55:55.992Z,37.22
2022-12-09T12:58:32.598Z,30.80
2022-12-09T13:01:14.512Z,34.75
2022-12-09T13:04:08.922Z,36.00
2022-12-09T13:07:29.688Z,37.25
2022-12-09T13:10:17.628Z,38.65
2022-12-09T13:13:09.605Z,35.40
2022-12-09T13:15:58.102Z,37.30
2022-12-09T13:18:40.928Z,37.50
2022-12-09T13:24:45.294Z,36.67
2022-12-09T13:27:40.891Z,35.75
2022-12-09T13:30:39.376Z,37.13
2022-12-09T13:33:30.107Z,37.47
2022-12-09T13:36:59.285Z,36.60
2022-12-09T13:39:42.320Z,35.88
2022-12-09T13:42:53.488Z,35.45
2022-12-09T13:45:35.074Z,38.85
2022-12-09T13:48:24.551Z,38.07
2022-12-09T13:50:54.269Z,39.00
2022-12-09T13:53:21.758Z,31.45
2022-12-09T13:56:03.263Z,34.05
2022-12-09T13:58:39.750Z,36.63
2022-12-09T14:01:13.072Z,35.35
2022-12-09T14:03:55.573Z,34.35
2022-12-09T14:06:30.134Z,40.97
2022-12-09T14:09:03.984Z,39.75
2022-12-09T14:11:43.650Z,44.25
2022-12-09T14:14:26.486Z,41.67
2022-12-09T14:16:59.496Z,36.58
2022-12-09T14:19:27.136Z,39.17
2022-12-09T14:22:19.845Z,45.38
2022-12-09T14:24:58.234Z,43.55
2022-12-09T14:27:27.217Z,40.13
2022-12-09T14:30:24.913Z,47.03
2022-12-09T14:32:55.214Z,41.67
2022-12-09T14:35:55.155Z,43.38
2022-12-09T14:39:22.555Z,46.05
2022-12-09T14:41:55.872Z,45.03
2022-12-09T14:44:23.435Z,48.05
2022-12-09T14:46:54.597Z,45.20
2022-12-09T14:49:29.880Z,44.20
2022-12-09T14:52:04.150Z,45.33
2022-12-09T14:54:44.397Z,40.97
2022-12-09T14:57:25.826Z,41.30
2022-12-09T14:59:57.126Z,47.42
2022-12-09T15:02:32.901Z,43.85
2022-12-09T15:05:03.167Z,44.95
2022-12-09T15:07:35.347Z,43.35
2022-12-09T15:10:08.603Z,43.13
2022-12-09T15:12:39.787Z,48.40
2022-12-09T15:15:16.571Z,50.45
2022-12-09T15:17:47.404Z,51.15
2022-12-09T15:20:25.946Z,55.50
2022-12-09T15:23:00.070Z,55.75
2022-12-09T15:25:28.623Z,52.40
2022-12-09T15:28:13.709Z,49.95
2022-12-09T15:30:41.642Z,50.85
2022-12-09T15:33:20.996Z,54.67
2022-12-09T15:36:00.319Z,47.20
2022-12-09T15:38:37.359Z,50.90
2022-12-09T15:41:27.588Z,45.58
2022-12-09T15:43:59.145Z,54.95
2022-12-09T15:46:28.663Z,44.03
2022-12-09T15:48:59.596Z,54.85
2022-12-09T15:51:29.705Z,62.05
2022-12-09T15:54:06.193Z,55.95
2022-12-09T15:56:48.693Z,51.90
2022-12-09T15:59:24.853Z,53.08
2022-12-09T16:01:56.846Z,58.75
2022-12-09T16:04:29.481Z,62.28
2022-12-09T16:06:58.418Z,59.20
2022-12-09T16:09:27.159Z,62.28
2022-12-09T16:11:56.583Z,62.60
2022-12-09T16:14:25.798Z,61.35
2022-12-09T16:17:00.612Z,63.00
2022-12-09T16:19:34.316Z,59.03
2022-12-09T16:22:30.041Z,57.53
2022-12-09T16:25:16.035Z,58.33
2022-12-09T16:27:49.937Z,62.47
2022-12-09T16:30:22.004Z,53.90
2022-12-09T16:32:54.487Z,54.97
2022-12-09T16:38:22.884Z,59.65
2022-12-09T16:40:50.968Z,55.83
2022-12-09T16:43:19.150Z,52.88
2022-12-09T16:45:51.656Z,54.60
2022-12-09T16:48:21.432Z,56.13
2022-12-09T16:51:07.542Z,51.90
2022-12-09T16:53:41.131Z,55.72
2022-12-09T16:56:20.664Z,59.47
2022-12-09T16:58:48.846Z,49.50
2022-12-09T17:01:19.682Z,56.47
2022-12-09T17:03:53.889Z,59.03
2022-12-09T17:06:22.268Z,57.63
2022-12-09T17:08:50.746Z,59.42
2022-12-09T17:11:21.695Z,56.20
2022-12-09T17:13:52.739Z,51.88
2022-12-09T17:16:22.295Z,60.50
2022-12-09T17:18:50.476Z,56.78
2022-12-09T17:21:18.603Z,52.65
2022-12-09T17:23:46.293Z,54.15
2022-12-09T17:26:16.079Z,54.38
2022-12-09T17:28:45.048Z,59.13
2022-12-09T17:31:15.815Z,61.13
2022-12-09T17:33:44.643Z,49.90
2022-12-09T17:36:14.081Z,56.70
2022-12-09T17:38:42.456Z,61.00
2022-12-09T17:41:14.764Z,67.55
2022-12-09T17:43:43.111Z,58.55
2022-12-09T17:46:11.672Z,58.13
2022-12-09T17:48:40.195Z,66.25
2022-12-09T17:51:12.686Z,58.58
2022-12-09T17:56:10.499Z,68.75
2022-12-09T17:58:38.225Z,66.30
2022-12-09T18:01:06.629Z,64.68
2022-12-09T18:03:54.790Z,65.40
2022-12-09T18:06:21.798Z,64.32
2022-12-09T18:08:49.388Z,69.47
2022-12-09T18:11:17.148Z,73.10
2022-12-09T18:13:44.720Z,69.53
2022-12-09T18:16:13.824Z,64.72
2022-12-09T18:18:42.948Z,67.93
2022-12-09T18:21:15.547Z,69.75
2022-12-09T18:23:43.692Z,68.75
2022-12-09T18:26:15.142Z,67.30
2022-12-09T18:28:43.541Z,60.23
2022-12-09T18:31:15.474Z,71.55
2022-12-09T18:33:44.619Z,64.97
2022-12-09T18:36:15.876Z,69.50
2022-12-09T18:38:44.665Z,71.32
2022-12-09T18:41:25.101Z,67.45
2022-12-09T18:43:55.336Z,83.25
2022-12-09T18:46:26.292Z,73.60
2022-12-09T18:49:08.875Z,73.35
2022-12-09T18:51:37.462Z,75.70
2022-12-09T18:54:06.862Z,66.75
2022-12-09T18:56:36.193Z,59.40
2022-12-09T18:59:07.125Z,74.60
2022-12-09T19:01:39.623Z,53.78
2022-12-09T19:04:10.009Z,72.03
2022-12-09T19:06:40.242Z,71.65
2022-12-09T19:09:16.914Z,73.53
2022-12-09T19:11:46.440Z,73.18
2022-12-09T19:14:15.527Z,69.35
2022-12-09T19:16:44.601Z,68.55
2022-12-09T19:19:18.103Z,65.40
2022-12-09T19:21:47.196Z,72.95
2022-12-09T19:24:18.140Z,66.90
2022-12-09T19:26:46.532Z,71.45
2022-12-09T19:29:16.147Z,65.43
2022-12-09T19:31:46.965Z,69.10
2022-12-09T19:34:23.846Z,62.67
2022-12-09T19:36:53.652Z,68.25
2022-12-09T19:39:24.491Z,63.33
2022-12-09T19:41:52.987Z,63.15
2022-12-09T19:44:44.488Z,66.50
2022-12-09T19:47:10.948Z,61.53
2022-12-09T19:49:41.568Z,71.18
2022-12-09T19:52:09.642Z,75.95
2022-12-09T19:54:37.712Z,66.05
2022-12-09T19:57:05.683Z,64.88
2022-12-09T19:59:35.539Z,61.47
2022-12-09T20:02:03.501Z,77.97
2022-12-09T20:04:49.598Z,65.68
2022-12-09T20:07:18.754Z,69.80
2022-12-09T20:09:46.836Z,67.30
2022-12-09T20:12:15.004Z,73.28
2022-12-09T20:14:43.377Z,74.03
2022-12-09T20:17:11.574Z,72.03
2022-12-09T20:19:39.734Z,69.53
2022-12-09T20:22:07.798Z,72.07
2022-12-09T20:24:36.008Z,74.72
2022-12-09T20:27:03.954Z,66.60
2022-12-09T20:29:37.272Z,71.00
2022-12-09T20:32:05.719Z,70.82
2022-12-09T20:34:33.720Z,62.15
2022-12-09T20:37:01.870Z,63.10
2022-12-09T20:39:29.971Z,67.00
2022-12-09T20:41:59.454Z,62.13
2022-12-09T20:44:27.431Z,65.07
2022-12-09T20:46:55.498Z,62.70
2022-12-09T20:49:26.769Z,65.38
2022-12-09T20:51:56.042Z,49.75
2022-12-09T20:54:24.579Z,59.83
2022-12-09T20:56:53.229Z,67.05
2022-12-09T20:59:21.384Z,63.50
2022-12-09T21:01:49.453Z,60.83
2022-12-09T21:04:18.034Z,65.22
2022-12-09T21:06:45.627Z,52.10
2022-12-09T21:09:19.976Z,52.63
2022-12-09T21:11:48.880Z,57.85
2022-12-09T21:14:19.182Z,62.25
2022-12-09T21:16:50.228Z,58.65
2022-12-09T21:19:25.164Z,51.92
2022-12-09T21:21:53.539Z,54.88
2022-12-09T21:24:23.148Z,57.88
2022-12-09T21:26:53.106Z,50.33
2022-12-09T21:29:22.301Z,53.08
2022-12-09T21:31:54.330Z,50.40
2022-12-09T21:34:24.184Z,49.65
2022-12-09T21:36:52.116Z,59.13
2022-12-09T21:39:20.370Z,56.10
2022-12-09T21:41:48.066Z,54.47
2022-12-09T21:44:19.035Z,51.53
2022-12-09T21:46:47.147Z,62.38
2022-12-09T21:49:15.503Z,59.13
2022-12-09T21:51:44.059Z,52.65
2022-12-09T21:54:11.757Z,54.22
2022-12-09T21:56:39.361Z,53.97
2022-12-09T21:59:08.243Z,56.22
2022-12-09T22:01:38.859Z,45.63
2022-12-09T22:04:08.297Z,48.40
2022-12-09T22:06:35.957Z,46.55
2022-12-09T22:09:04.730Z,45.95
2022-12-09T22:11:36.325Z,53.00
2022-12-09T22:14:04.564Z,50.20
2022-12-09T22:16:36.174Z,53.72
2022-12-09T22:19:08.047Z,52.05
2022-12-09T22:21:37.395Z,47.45
2022-12-09T22:24:07.620Z,54.05
2022-12-09T22:26:35.219Z,44.90
2022-12-09T22:29:04.370Z,52.95
2022-12-09T22:31:35.340Z,51.15
2022-12-09T22:34:06.553Z,89.53
2022-12-09T22:36:36.817Z,59.00
2022-12-09T22:39:07.802Z,63.08
2022-12-09T22:41:35.930Z,52.58
2022-12-09T22:44:04.731Z,51.55
2022-12-09T22:46:34.731Z,62.13
2022-12-09T22:49:04.869Z,56.10
2022-12-09T22:51:35.368Z,59.95
2022-12-09T22:54:05.952Z,51.22
2022-12-09T22:56:34.213Z,47.30
2022-12-09T22:59:02.024Z,55.72
2022-12-09T23:01:32.885Z,57.90
2022-12-09T23:04:01.569Z,59.42
2022-12-09T23:06:30.856Z,61.92
2022-12-09T23:08:58.955Z,54.80
2022-12-09T23:11:28.409Z,56.70
2022-12-09T23:13:56.464Z,58.38
2022-12-09T23:16:26.577Z,57.25
2022-12-09T23:18:56.715Z,71.55
2022-12-09T23:21:30.502Z,58.90
2022-12-09T23:24:01.160Z,65.50
2022-12-09T23:26:31.707Z,65.63
2022-12-09T23:29:01.911Z,63.85
2022-12-09T23:31:32.480Z,70.05
2022-12-09T23:34:01.310Z,66.38
2022-12-09T23:36:32.512Z,62.55
2022-12-09T23:39:01.908Z,65.78
2022-12-09T23:41:30.363Z,67.80
2022-12-09T23:43:58.417Z,66.18
2022-12-09T23:46:28.076Z,67.18
2022-12-09T23:48:56.351Z,64.75
2022-12-09T23:51:29.729Z,70.00
2022-12-09T23:54:00.192Z,67.10
2022-12-09T23:56:29.843Z,77.40
2022-12-09T23:58:59.901Z,71.93
